Time;durP1;ratioP1;P1;durP2;ratioP2;P2;SDS_P1;SDS_P2;PMS_P1;PMS_P2;Temp;Humidity;BMP_temperature;BMP_pressure;BME280_temperature;BME280_humidity;BME280_pressure;Samples;Min_cycle;Max_cycle;Signal;HPM_P1;HPM_P2
2022/01/09 00:00:27;;;;;;;0.38;0.38;;;5.20;99.90;;;;;;5092639;28;20169;-49
2022/01/09 00:02:53;;;;;;;0.40;0.40;;;5.20;99.90;;;;;;5092202;28;20177;-48
2022/01/09 00:05:19;;;;;;;0.43;0.43;;;5.20;99.90;;;;;;5091917;28;20165;-49
2022/01/09 00:07:45;;;;;;;1.98;0.80;;;5.30;99.90;;;;;;5092322;28;20197;-49
2022/01/09 00:10:11;;;;;;;0.30;0.30;;;5.30;99.90;;;;;;5092343;28;20193;-49
2022/01/09 00:12:37;;;;;;;1.33;1.02;;;5.30;99.90;;;;;;5092005;28;20583;-49
2022/01/09 00:15:04;;;;;;;1.17;0.50;;;5.30;99.90;;;;;;5092292;28;20165;-49
2022/01/09 00:17:30;;;;;;;1.10;0.98;;;5.30;99.90;;;;;;5092523;28;20205;-49
2022/01/09 00:19:55;;;;;;;0.43;0.30;;;5.30;99.90;;;;;;5092232;28;20161;-49
2022/01/09 00:22:32;;;;;;;2.25;1.10;;;5.20;99.90;;;;;;5092074;28;20218;-49
2022/01/09 00:24:57;;;;;;;0.95;0.45;;;5.30;99.90;;;;;;5092729;28;20176;-49
2022/01/09 00:27:23;;;;;;;0.20;0.20;;;5.30;99.90;;;;;;5092165;28;20170;-49
2022/01/09 00:29:48;;;;;;;2.05;0.80;;;5.30;99.90;;;;;;5092090;28;20177;-49
2022/01/09 00:32:14;;;;;;;0.52;0.52;;;5.30;99.90;;;;;;5092067;28;20644;-49
2022/01/09 00:34:39;;;;;;;1.08;0.40;;;5.30;99.90;;;;;;5092023;28;20177;-49
2022/01/09 00:37:05;;;;;;;0.52;0.30;;;5.20;99.90;;;;;;5092067;28;20165;-49
2022/01/09 00:39:30;;;;;;;2.50;2.08;;;5.20;99.90;;;;;;5092364;28;20218;-48
2022/01/09 00:41:56;;;;;;;0.65;0.52;;;5.30;99.90;;;;;;5091975;28;20215;-48
2022/01/09 00:44:21;;;;;;;0.45;0.30;;;5.30;99.90;;;;;;5091996;28;20680;-50
2022/01/09 00:46:47;;;;;;;0.75;0.70;;;5.40;99.90;;;;;;5092092;28;20165;-50
2022/01/09 00:49:12;;;;;;;0.57;0.57;;;5.40;99.90;;;;;;5091923;28;20504;-50
2022/01/09 00:51:38;;;;;;;1.70;0.98;;;5.40;99.90;;;;;;5092045;28;20248;-49
2022/01/09 00:54:03;;;;;;;2.20;1.27;;;5.30;99.90;;;;;;5091862;28;20201;-49
2022/01/09 00:56:29;;;;;;;2.53;1.60;;;5.40;99.90;;;;;;5092210;28;20167;-49
2022/01/09 00:58:55;;;;;;;4.43;1.88;;;5.50;99.90;;;;;;5091830;28;20668;-50
2022/01/09 01:01:20;;;;;;;2.60;1.42;;;5.50;99.90;;;;;;5091792;28;20248;-50
2022/01/09 01:03:46;;;;;;;5.00;1.88;;;5.60;99.90;;;;;;5091823;28;20193;-49
2022/01/09 01:06:13;;;;;;;3.10;2.38;;;5.60;99.90;;;;;;5091825;28;20210;-51
2022/01/09 01:08:38;;;;;;;6.10;2.90;;;5.60;99.90;;;;;;5092059;28;20177;-50
2022/01/09 01:11:04;;;;;;;5.10;2.03;;;5.60;99.90;;;;;;5091716;28;20170;-50
2022/01/09 01:13:30;;;;;;;5.43;2.38;;;5.70;99.90;;;;;;5091738;28;20299;-49
2022/01/09 01:15:57;;;;;;;0.90;0.85;;;5.70;99.90;;;;;;5094343;28;20172;-50
2022/01/09 01:18:22;;;;;;;0.63;0.55;;;5.70;99.90;;;;;;5077801;28;20173;-50
2022/01/09 01:20:48;;;;;;;0.68;0.40;;;5.80;99.90;;;;;;5095360;28;20658;-50
2022/01/09 01:23:13;;;;;;;0.30;0.30;;;5.80;99.90;;;;;;5095469;28;20197;-50
2022/01/09 01:25:40;;;;;;;0.93;0.60;;;5.80;99.90;;;;;;5077173;28;20196;-49
2022/01/09 01:28:06;;;;;;;0.73;0.73;;;5.90;99.90;;;;;;5095598;28;20180;-50
2022/01/09 01:30:31;;;;;;;0.85;0.85;;;5.90;99.90;;;;;;5095808;28;20169;-49
2022/01/09 01:32:57;;;;;;;1.13;1.00;;;5.90;99.90;;;;;;5095663;28;20197;-50
2022/01/09 01:35:23;;;;;;;1.25;1.15;;;5.90;99.90;;;;;;5095416;28;20538;-50
2022/01/09 01:37:48;;;;;;;1.20;1.10;;;5.90;99.90;;;;;;5095217;28;20531;-49
2022/01/09 01:40:17;;;;;;;5.25;1.13;;;5.90;99.90;;;;;;5095203;28;20172;-49
2022/01/09 01:42:43;;;;;;;1.38;1.20;;;5.90;99.90;;;;;;5095293;28;20165;-50
2022/01/09 01:45:09;;;;;;;3.92;1.40;;;5.90;99.90;;;;;;5095017;28;20687;-48
2022/01/09 01:47:35;;;;;;;2.97;1.27;;;5.90;99.90;;;;;;5094941;28;20200;-47
2022/01/09 01:50:02;;;;;;;3.70;2.05;;;6.00;99.90;;;;;;5095360;28;20181;-48
2022/01/09 01:52:33;;;;;;;1.65;1.55;;;5.90;99.90;;;;;;5095093;28;20731;-50
2022/01/09 01:54:58;;;;;;;5.82;2.42;;;6.00;99.90;;;;;;5095446;28;20174;-50
2022/01/09 01:57:24;;;;;;;3.53;1.60;;;6.00;99.90;;;;;;5094989;28;20637;-48
2022/01/09 01:59:50;;;;;;;1.20;0.90;;;5.90;99.90;;;;;;5094683;28;20172;-48
2022/01/09 02:02:15;;;;;;;1.30;1.20;;;5.90;99.90;;;;;;5094670;28;20295;-50
2022/01/09 02:04:41;;;;;;;1.08;0.70;;;5.80;99.90;;;;;;5094556;28;20172;-50
2022/01/09 02:07:07;;;;;;;0.85;0.73;;;5.70;99.90;;;;;;5094629;28;20244;-49
2022/01/09 02:09:33;;;;;;;0.30;0.30;;;5.60;99.90;;;;;;5094529;28;20250;-48
2022/01/09 02:11:59;;;;;;;0.75;0.70;;;5.50;99.90;;;;;;5094595;28;20266;-50
2022/01/09 02:14:25;;;;;;;2.08;0.70;;;5.40;99.90;;;;;;5094468;28;20193;-50
2022/01/09 02:16:51;;;;;;;2.25;0.93;;;5.40;99.90;;;;;;5094654;28;20201;-50
2022/01/09 02:19:20;;;;;;;3.08;1.00;;;5.20;99.90;;;;;;5094418;28;20629;-50
2022/01/09 02:21:46;;;;;;;2.88;0.70;;;5.10;99.90;;;;;;5094330;28;20656;-50
2022/01/09 02:24:15;;;;;;;6.25;1.00;;;5.00;99.90;;;;;;5094263;28;20170;-49
2022/01/09 02:26:41;;;;;;;1.17;0.35;;;4.90;99.90;;;;;;5093676;28;20180;-50
2022/01/09 02:29:07;;;;;;;3.65;1.48;;;4.90;99.90;;;;;;5094247;28;20165;-51
2022/01/09 02:31:34;;;;;;;3.05;1.48;;;4.90;99.90;;;;;;5094349;28;20539;-49
2022/01/09 02:34:00;;;;;;;1.52;0.95;;;4.90;99.90;;;;;;5094275;28;20209;-51
2022/01/09 02:36:25;;;;;;;3.08;1.25;;;4.90;99.90;;;;;;5094086;28;20165;-51
2022/01/09 02:38:51;;;;;;;3.80;1.38;;;4.90;99.90;;;;;;5093998;28;20180;-51
2022/01/09 02:41:16;;;;;;;3.63;1.00;;;5.00;99.90;;;;;;5093957;28;20226;-49
2022/01/09 02:43:42;;;;;;;3.80;1.38;;;5.00;99.90;;;;;;5094166;28;20177;-49
2022/01/09 02:46:30;;;;;;;4.25;1.83;;;5.00;99.90;;;;;;5093865;28;20626;-51
2022/01/09 02:48:57;;;;;;;4.28;1.42;;;5.00;99.90;;;;;;5075583;28;20196;-50
2022/01/09 02:51:24;;;;;;;5.13;1.25;;;5.10;99.90;;;;;;5075574;28;20577;-50
2022/01/09 02:53:56;;;;;;;8.20;2.08;;;5.00;99.90;;;;;;5075447;28;20204;-50
2022/01/09 02:56:22;;;;;;;5.47;1.55;;;5.10;99.90;;;;;;5075663;28;20165;-50
2022/01/09 02:58:47;;;;;;;8.25;2.60;;;5.10;99.90;;;;;;5075398;28;20195;-50
2022/01/09 03:01:13;;;;;;;9.32;2.03;;;5.20;99.90;;;;;;5093592;28;20157;-49
2022/01/09 03:03:39;;;;;;;6.43;1.90;;;5.20;99.90;;;;;;5093605;28;20252;-50
2022/01/09 03:06:07;;;;;;;11.93;2.25;;;5.10;99.90;;;;;;5093427;28;20625;-48
2022/01/09 03:08:33;;;;;;;7.18;1.30;;;5.20;99.90;;;;;;5093656;28;20169;-48
2022/01/09 03:10:59;;;;;;;19.55;3.08;;;5.20;99.90;;;;;;5093863;28;20294;-48
2022/01/09 03:13:25;;;;;;;4.90;1.70;;;5.20;99.90;;;;;;5093207;28;20216;-49
2022/01/09 03:15:50;;;;;;;7.82;2.80;;;5.20;99.90;;;;;;5093441;28;20173;-49
2022/01/09 03:18:16;;;;;;;11.20;2.53;;;5.20;99.90;;;;;;5093158;28;20578;-48
2022/01/09 03:20:42;;;;;;;4.95;2.47;;;5.20;99.90;;;;;;5093399;28;20166;-48
2022/01/09 03:23:08;;;;;;;4.97;2.08;;;5.20;99.90;;;;;;5093016;28;20168;-49
2022/01/09 03:25:33;;;;;;;4.43;1.80;;;5.20;99.90;;;;;;5093103;28;20169;-48
2022/01/09 03:27:59;;;;;;;11.95;2.78;;;5.20;99.90;;;;;;5093377;28;20248;-49
2022/01/09 03:30:26;;;;;;;8.95;2.97;;;5.20;99.90;;;;;;5093190;28;20272;-50
2022/01/09 03:32:53;;;;;;;9.77;2.83;;;5.20;99.90;;;;;;5093157;28;20205;-49
2022/01/09 03:35:24;;;;;;;7.22;3.08;;;5.20;99.90;;;;;;5092874;28;20173;-49
2022/01/09 03:37:51;;;;;;;8.52;3.08;;;5.20;99.90;;;;;;5092579;28;20173;-49
2022/01/09 03:40:19;;;;;;;8.13;2.40;;;5.20;99.90;;;;;;5092494;28;20167;-50
2022/01/09 03:42:46;;;;;;;17.63;3.33;;;5.20;99.90;;;;;;5074646;28;20161;-50
2022/01/09 03:45:12;;;;;;;7.10;2.88;;;5.20;99.90;;;;;;5092899;28;20230;-48
2022/01/09 03:47:41;;;;;;;21.73;3.97;;;5.20;99.90;;;;;;5092662;28;20391;-49
2022/01/09 03:50:12;;;;;;;22.13;3.88;;;5.20;99.90;;;;;;5092554;28;20165;-48
2022/01/09 03:52:39;;;;;;;16.90;4.15;;;5.30;99.90;;;;;;5092683;28;20201;-49
2022/01/09 03:55:10;;;;;;;25.02;4.47;;;5.30;99.90;;;;;;5092132;28;20264;-49
2022/01/09 03:57:36;;;;;;;18.75;4.15;;;5.40;99.90;;;;;;5092701;28;20165;-49
2022/01/09 04:00:04;;;;;;;31.92;5.22;;;5.40;99.90;;;;;;5074902;28;20546;-49
2022/01/09 04:02:30;;;;;;;17.85;4.78;;;5.40;99.90;;;;;;5092931;28;20177;-49
2022/01/09 04:04:59;;;;;;;22.70;5.30;;;5.40;99.90;;;;;;5092620;28;20169;-48
2022/01/09 04:07:24;;;;;;;17.35;3.58;;;5.40;99.90;;;;;;5092273;28;20190;-48
2022/01/09 04:09:50;;;;;;;15.23;3.50;;;5.50;99.90;;;;;;5092204;28;20161;-48
2022/01/09 04:12:29;;;;;;;23.23;4.85;;;5.50;99.90;;;;;;5092043;28;20217;-49
2022/01/09 04:14:55;;;;;;;22.60;4.78;;;5.50;99.90;;;;;;5074209;28;20165;-48
2022/01/09 04:18:06;;;;;;;19.25;6.00;;;5.50;99.90;;;;;;5092299;28;20165;-48
2022/01/09 04:20:08;;;;;;;19.08;3.42;;;5.50;99.90;;;;;;5078052;28;20540;-48
2022/01/09 04:22:36;;;;;;;21.77;3.72;;;5.50;99.90;;;;;;5092216;28;20173;-48
2022/01/09 04:25:03;;;;;;;20.88;4.07;;;5.60;99.90;;;;;;5092595;28;20624;-47
2022/01/09 04:27:29;;;;;;;19.38;4.78;;;5.60;99.90;;;;;;5092334;28;20169;-48
2022/01/09 04:29:54;;;;;;;18.38;4.07;;;5.60;99.90;;;;;;5092094;28;20164;-49
2022/01/09 04:32:20;;;;;;;14.27;3.55;;;5.60;99.90;;;;;;5072326;28;20240;-49
2022/01/09 04:34:50;;;;;;;26.15;4.60;;;5.60;99.90;;;;;;5092025;28;20176;-48
2022/01/09 04:37:16;;;;;;;11.43;3.17;;;5.60;99.90;;;;;;5092028;28;20164;-48
2022/01/09 04:39:42;;;;;;;12.65;3.08;;;5.60;99.90;;;;;;5092032;28;20173;-48
2022/01/09 04:42:07;;;;;;;15.88;3.88;;;5.60;99.90;;;;;;5092040;28;20189;-49
2022/01/09 04:44:33;;;;;;;12.30;2.45;;;5.60;99.90;;;;;;5092125;28;20274;-48
2022/01/09 04:47:04;;;;;;;26.58;4.43;;;5.60;99.90;;;;;;5092242;28;20177;-48
2022/01/09 04:49:36;;;;;;;14.68;2.78;;;5.60;99.90;;;;;;5092791;28;20260;-49
2022/01/09 04:52:04;;;;;;;9.05;3.25;;;5.60;99.90;;;;;;5079250;28;20647;-49
2022/01/09 04:54:30;;;;;;;16.58;3.45;;;5.60;99.90;;;;;;5078171;28;20237;-48
2022/01/09 04:56:56;;;;;;;12.57;3.47;;;5.60;99.90;;;;;;5095826;28;20637;-49
2022/01/09 04:59:21;;;;;;;15.02;3.00;;;5.60;99.90;;;;;;5077512;28;20173;-49
2022/01/09 05:01:47;;;;;;;13.70;3.20;;;5.60;99.90;;;;;;5095783;28;20272;-48
2022/01/09 05:04:12;;;;;;;9.80;2.95;;;5.60;99.90;;;;;;5095674;28;20169;-49
2022/01/09 05:06:38;;;;;;;13.20;2.65;;;5.60;99.90;;;;;;5095640;28;20242;-49
2022/01/09 05:09:04;;;;;;;18.38;4.28;;;5.60;99.90;;;;;;5095147;28;20169;-48
2022/01/09 05:11:29;;;;;;;12.68;3.40;;;5.60;99.90;;;;;;5077687;28;20169;-48
2022/01/09 05:13:55;;;;;;;15.18;2.72;;;6.50;99.90;;;;;;5077316;28;20215;-49
2022/01/09 05:16:21;;;;;;;17.83;3.08;;;5.60;99.90;;;;;;5077343;28;20173;-50
2022/01/09 05:18:52;;;;;;;12.10;3.20;;;5.60;99.90;;;;;;5077312;28;20196;-49
2022/01/09 05:21:18;;;;;;;15.88;3.80;;;5.50;99.90;;;;;;5095354;28;20161;-49
2022/01/09 05:23:44;;;;;;;9.07;3.10;;;5.60;99.90;;;;;;5095444;28;20686;-50
2022/01/09 05:26:10;;;;;;;11.30;3.30;;;5.60;99.90;;;;;;5095327;28;20165;-48
2022/01/09 05:28:35;;;;;;;10.15;3.22;;;5.50;99.90;;;;;;5095190;28;20629;-49
2022/01/09 05:31:01;;;;;;;9.95;2.88;;;5.60;99.90;;;;;;5095554;28;20180;-50
2022/01/09 05:33:27;;;;;;;14.13;3.17;;;5.70;99.90;;;;;;5095049;28;20559;-50
2022/01/09 05:35:52;;;;;;;14.70;3.13;;;5.50;99.90;;;;;;5095145;28;20213;-50
2022/01/09 05:38:18;;;;;;;12.40;4.05;;;6.20;99.90;;;;;;5076912;28;20629;-50
2022/01/09 05:40:44;;;;;;;13.88;3.47;;;5.60;99.90;;;;;;5076893;28;20580;-48
2022/01/09 05:43:11;;;;;;;8.25;2.55;;;6.80;99.90;;;;;;5076825;28;20169;-50
2022/01/09 05:45:37;;;;;;;17.83;3.53;;;5.60;99.90;;;;;;5094901;28;20153;-49
2022/01/09 05:48:02;;;;;;;11.50;3.92;;;5.50;99.90;;;;;;5076631;28;20648;-49
2022/01/09 05:50:28;;;;;;;7.63;1.83;;;5.50;99.90;;;;;;5095175;28;20165;-49
2022/01/09 05:52:54;;;;;;;15.35;3.65;;;5.50;99.90;;;;;;5076586;28;20208;-49
2022/01/09 05:55:19;;;;;;;9.85;2.67;;;5.50;99.90;;;;;;5094736;28;20164;-50
2022/01/09 05:57:45;;;;;;;9.90;2.92;;;5.50;99.90;;;;;;5094786;28;20219;-49
2022/01/09 06:00:11;;;;;;;12.60;3.22;;;5.50;99.90;;;;;;5094661;28;20197;-50
2022/01/09 06:02:37;;;;;;;13.35;2.72;;;5.50;99.90;;;;;;5093907;28;20214;-49
2022/01/09 06:05:02;;;;;;;10.43;3.03;;;5.50;99.90;;;;;;5094834;28;20169;-48
2022/01/09 06:07:28;;;;;;;15.10;2.58;;;5.50;99.90;;;;;;5095098;28;20636;-50
2022/01/09 06:09:53;;;;;;;12.50;2.90;;;5.50;99.90;;;;;;5076462;28;20166;-49
2022/01/09 06:12:19;;;;;;;11.55;2.22;;;5.40;99.90;;;;;;5094171;28;20277;-49
2022/01/09 06:14:45;;;;;;;9.85;2.88;;;5.40;99.90;;;;;;5076236;28;20659;-49
2022/01/09 06:17:10;;;;;;;9.57;2.90;;;5.40;99.90;;;;;;5094397;28;20644;-50
2022/01/09 06:19:36;;;;;;;17.98;2.92;;;5.40;99.90;;;;;;5094398;28;20170;-50
2022/01/09 06:22:02;;;;;;;12.98;2.50;;;5.40;99.90;;;;;;5094657;28;20166;-49
2022/01/09 06:24:27;;;;;;;11.68;2.70;;;5.40;99.90;;;;;;5094601;28;20169;-48
2022/01/09 06:26:53;;;;;;;5.40;2.28;;;5.40;99.90;;;;;;5094190;28;20176;-49
2022/01/09 06:29:19;;;;;;;15.20;3.08;;;5.40;99.90;;;;;;5094209;28;20196;-50
2022/01/09 06:31:45;;;;;;;4.63;2.00;;;5.30;99.90;;;;;;5094349;28;20252;-49
2022/01/09 06:34:13;;;;;;;21.27;3.40;;;5.30;99.90;;;;;;5094246;28;20216;-48
2022/01/09 06:36:39;;;;;;;17.17;3.00;;;5.40;99.90;;;;;;5094304;28;20176;-50
2022/01/09 06:39:05;;;;;;;13.20;3.22;;;5.40;99.90;;;;;;5094118;28;20169;-49
2022/01/09 06:41:32;;;;;;;15.52;2.78;;;5.40;99.90;;;;;;5094173;28;20588;-49
2022/01/09 06:43:58;;;;;;;16.23;2.63;;;5.30;99.90;;;;;;5094048;28;20173;-49
2022/01/09 06:46:25;;;;;;;10.38;2.40;;;5.40;99.90;;;;;;5093716;28;20220;-49
2022/01/09 06:48:51;;;;;;;14.55;2.60;;;5.40;99.90;;;;;;5075705;28;20255;-49
2022/01/09 06:51:17;;;;;;;5.47;2.25;;;5.40;99.90;;;;;;5093673;28;20240;-48
2022/01/09 06:53:42;;;;;;;12.10;2.80;;;5.40;99.90;;;;;;5075414;28;20212;-49
2022/01/09 06:56:08;;;;;;;7.50;1.98;;;5.40;99.90;;;;;;5075555;28;20209;-50
2022/01/09 06:58:36;;;;;;;8.50;2.00;;;5.40;99.90;;;;;;5075388;28;20169;-49
2022/01/09 07:01:03;;;;;;;7.82;2.30;;;5.40;99.90;;;;;;5094099;28;20170;-49
2022/01/09 07:03:29;;;;;;;10.90;2.45;;;5.30;99.90;;;;;;5093996;28;20177;-49
2022/01/09 07:05:55;;;;;;;12.75;2.90;;;6.60;99.90;;;;;;5093424;28;20158;-50
2022/01/09 07:08:20;;;;;;;17.17;3.75;;;5.40;99.90;;;;;;5093385;28;20208;-50
2022/01/09 07:10:46;;;;;;;13.00;2.47;;;5.30;99.90;;;;;;5093316;28;20165;-50
2022/01/09 07:13:12;;;;;;;14.43;2.83;;;5.30;99.90;;;;;;5093027;28;20221;-50
2022/01/09 07:15:37;;;;;;;5.75;1.92;;;5.30;99.90;;;;;;5093239;28;20187;-49
2022/01/09 07:18:03;;;;;;;15.85;3.17;;;5.30;99.90;;;;;;5093159;28;20524;-49
2022/01/09 07:20:28;;;;;;;9.80;2.45;;;5.30;99.90;;;;;;5075271;28;20538;-49
2022/01/09 07:22:54;;;;;;;2.90;1.45;;;5.30;99.90;;;;;;5093098;28;20226;-50
2022/01/09 07:25:20;;;;;;;18.17;3.63;;;5.30;99.90;;;;;;5092994;28;20165;-49
2022/01/09 07:27:46;;;;;;;13.93;2.70;;;5.30;99.90;;;;;;5092990;28;20169;-50
2022/01/09 07:30:12;;;;;;;11.52;3.10;;;5.30;99.90;;;;;;5092820;28;20182;-50
2022/01/09 07:32:38;;;;;;;12.10;3.08;;;5.20;99.90;;;;;;5092539;28;20232;-49
2022/01/09 07:35:04;;;;;;;22.33;2.58;;;5.20;99.90;;;;;;5092735;28;20179;-50
2022/01/09 07:37:30;;;;;;;19.50;3.97;;;5.20;99.90;;;;;;5093172;28;20162;-48
2022/01/09 07:39:57;;;;;;;10.25;2.47;;;5.20;99.90;;;;;;5074706;28;20180;-49
2022/01/09 07:42:23;;;;;;;8.25;2.25;;;5.20;99.90;;;;;;5092680;28;20664;-50
2022/01/09 07:44:48;;;;;;;9.13;3.08;;;5.20;99.90;;;;;;5092673;28;20188;-49
2022/01/09 07:47:14;;;;;;;17.70;3.13;;;5.20;99.90;;;;;;5092781;28;20168;-50
2022/01/09 07:49:40;;;;;;;14.18;2.78;;;5.10;99.90;;;;;;5092357;28;20172;-48
2022/01/09 07:52:05;;;;;;;9.30;2.50;;;5.10;99.90;;;;;;5092503;28;20180;-50
2022/01/09 07:54:31;;;;;;;8.20;2.13;;;5.10;99.90;;;;;;5092841;28;20615;-48
2022/01/09 07:56:56;;;;;;;10.80;2.42;;;5.10;99.90;;;;;;5092435;28;20166;-50
2022/01/09 07:59:22;;;;;;;14.43;2.58;;;5.10;99.90;;;;;;5074368;28;20254;-49
2022/01/09 08:01:51;;;;;;;7.47;2.55;;;5.00;99.90;;;;;;5092038;28;20162;-49
2022/01/09 08:04:17;;;;;;;8.90;2.75;;;5.00;99.90;;;;;;5074135;28;20170;-49
2022/01/09 08:06:43;;;;;;;8.60;2.10;;;5.00;99.90;;;;;;5092091;28;20197;-49
2022/01/09 08:09:08;;;;;;;5.57;2.08;;;5.00;99.90;;;;;;5092022;28;20545;-49
2022/01/09 08:11:34;;;;;;;4.97;1.90;;;4.90;99.90;;;;;;5092277;28;20171;-48
2022/01/09 08:14:00;;;;;;;11.68;2.92;;;4.90;99.90;;;;;;5092514;28;20291;-49
2022/01/09 08:16:25;;;;;;;13.35;2.30;;;5.00;99.90;;;;;;5092210;28;20161;-48
2022/01/09 08:18:52;;;;;;;10.75;2.47;;;5.00;99.90;;;;;;5092194;28;20177;-49
2022/01/09 08:21:20;;;;;;;9.93;2.63;;;5.00;99.90;;;;;;5092214;28;20656;-49
2022/01/09 08:23:47;;;;;;;16.77;2.88;;;5.00;99.90;;;;;;5092458;28;20178;-49
2022/01/09 08:26:13;;;;;;;13.50;2.40;;;5.00;99.90;;;;;;5091965;28;20252;-48
2022/01/09 08:28:41;;;;;;;10.80;2.50;;;5.10;99.90;;;;;;5092173;28;20176;-48
2022/01/09 08:31:08;;;;;;;8.70;2.28;;;5.10;99.90;;;;;;5092163;28;20169;-48
2022/01/09 08:33:33;;;;;;;15.77;2.97;;;5.10;99.90;;;;;;5092251;28;20209;-48
2022/01/09 08:35:59;;;;;;;14.20;2.67;;;5.10;99.90;;;;;;5092514;28;20168;-48
2022/01/09 08:38:25;;;;;;;8.38;2.63;;;5.10;99.90;;;;;;5091725;28;20248;-48
2022/01/09 08:40:50;;;;;;;9.25;3.20;;;5.10;99.90;;;;;;5091791;28;20320;-49
2022/01/09 08:43:16;;;;;;;8.88;3.55;;;5.10;99.90;;;;;;5091831;28;20169;-48
2022/01/09 08:45:42;;;;;;;6.35;2.92;;;5.10;99.90;;;;;;5091570;28;20196;-48
2022/01/09 08:48:07;;;;;;;9.90;2.83;;;5.10;99.90;;;;;;5092083;28;20677;-48
2022/01/09 08:50:33;;;;;;;10.90;2.80;;;5.10;99.90;;;;;;5091628;28;20168;-48
2022/01/09 08:52:59;;;;;;;14.50;2.97;;;5.00;99.90;;;;;;5092195;28;20209;-50
2022/01/09 08:55:24;;;;;;;8.95;2.72;;;5.00;99.90;;;;;;5091839;28;20674;-48
2022/01/09 08:57:50;;;;;;;13.70;2.65;;;5.00;99.90;;;;;;5073788;28;20195;-49
2022/01/09 09:00:18;;;;;;;8.10;3.10;;;5.00;99.90;;;;;;5091948;28;20659;-48
2022/01/09 09:02:44;;;;;;;8.57;2.92;;;5.00;99.90;;;;;;5092058;28;20256;-48
2022/01/09 09:05:10;;;;;;;8.40;2.58;;;5.00;99.90;;;;;;5073839;28;20273;-48
2022/01/09 09:07:36;;;;;;;7.65;2.38;;;5.10;99.90;;;;;;5091819;28;20170;-48
2022/01/09 09:10:04;;;;;;;8.60;2.83;;;5.10;99.90;;;;;;5091991;28;20176;-48
2022/01/09 09:12:31;;;;;;;9.68;2.28;;;5.10;99.90;;;;;;5091892;28;20217;-49
2022/01/09 09:14:59;;;;;;;12.18;3.88;;;5.10;99.90;;;;;;5091763;28;20169;-49
2022/01/09 09:17:25;;;;;;;7.57;2.92;;;5.10;99.90;;;;;;5091943;28;20256;-49
2022/01/09 09:19:51;;;;;;;6.53;3.10;;;5.10;99.90;;;;;;5073553;28;20169;-48
2022/01/09 09:22:16;;;;;;;10.40;3.03;;;5.10;99.90;;;;;;5091626;28;20170;-48
2022/01/09 09:24:42;;;;;;;8.48;2.70;;;5.10;99.90;;;;;;5091860;28;20176;-49
2022/01/09 09:27:07;;;;;;;11.63;2.90;;;5.20;99.90;;;;;;5091124;28;20207;-49
2022/01/09 09:29:33;;;;;;;12.32;2.65;;;5.20;99.90;;;;;;5091700;28;20242;-49
2022/01/09 09:31:59;;;;;;;10.88;3.60;;;5.20;99.90;;;;;;5091553;28;20184;-48
2022/01/09 09:34:25;;;;;;;8.27;3.30;;;5.20;99.90;;;;;;5091174;28;20232;-48
2022/01/09 09:36:52;;;;;;;9.48;2.83;;;5.20;99.90;;;;;;5092190;28;20172;-49
2022/01/09 09:39:18;;;;;;;13.48;3.20;;;5.30;99.90;;;;;;5095410;28;20177;-49
2022/01/09 09:41:43;;;;;;;14.65;3.95;;;5.30;99.90;;;;;;5095055;28;20756;-48
2022/01/09 09:44:09;;;;;;;13.25;3.33;;;5.30;99.90;;;;;;5095135;28;20173;-48
2022/01/09 09:46:36;;;;;;;11.15;2.72;;;5.30;99.90;;;;;;5095208;28;20672;-48
2022/01/09 09:49:02;;;;;;;7.68;3.10;;;5.30;99.90;;;;;;5095079;28;20170;-47
2022/01/09 09:51:29;;;;;;;8.63;2.75;;;5.30;99.90;;;;;;5095824;28;20252;-48
2022/01/09 09:53:55;;;;;;;6.93;2.65;;;5.30;99.90;;;;;;5094705;28;20212;-49
2022/01/09 09:56:21;;;;;;;10.90;3.65;;;5.30;99.90;;;;;;5076546;28;20167;-48
2022/01/09 09:58:49;;;;;;;7.30;2.50;;;5.30;99.90;;;;;;5094783;28;20176;-48
2022/01/09 10:01:27;;;;;;;4.07;2.40;;;5.30;99.90;;;;;;5094323;28;20161;-45
2022/01/09 10:04:07;;;;;;;5.85;2.40;;;5.30;99.90;;;;;;5094779;28;20172;-49
2022/01/09 10:06:47;;;;;;;10.45;2.83;;;5.30;99.90;;;;;;5094675;28;20226;-47
2022/01/09 10:09:19;;;;;;;6.57;2.70;;;5.30;99.90;;;;;;5094814;28;20173;-47
2022/01/09 10:11:46;;;;;;;9.48;3.28;;;5.30;99.90;;;;;;5094371;28;20715;-47
2022/01/09 10:14:27;;;;;;;9.15;2.85;;;5.40;99.90;;;;;;5094642;28;20205;-47
2022/01/09 10:17:12;;;;;;;8.95;2.67;;;5.40;99.90;;;;;;5094118;28;20244;-46
2022/01/09 10:20:04;;;;;;;12.32;2.60;;;5.50;99.90;;;;;;5094020;28;20171;-49
2022/01/09 10:22:36;;;;;;;10.27;2.85;;;5.50;99.90;;;;;;5094441;28;20166;-49
2022/01/09 10:25:31;;;;;;;11.88;3.75;;;5.50;99.90;;;;;;5094558;28;20180;-47
2022/01/09 10:28:02;;;;;;;19.33;2.97;;;5.50;99.90;;;;;;5094047;28;20169;-47
2022/01/09 10:30:32;;;;;;;10.02;2.80;;;5.50;99.90;;;;;;5094053;28;20165;-45
2022/01/09 10:33:01;;;;;;;10.02;3.30;;;5.40;99.90;;;;;;5093762;28;20300;-49
2022/01/09 10:35:28;;;;;;;9.77;3.75;;;5.40;99.90;;;;;;5094282;28;20174;-48
2022/01/09 10:38:03;;;;;;;8.65;3.55;;;5.40;99.90;;;;;;5094231;28;20192;-48
2022/01/09 10:40:29;;;;;;;5.60;2.35;;;5.40;99.90;;;;;;5094258;28;20176;-47
2022/01/09 10:43:05;;;;;;;4.40;2.33;;;5.40;99.90;;;;;;5093858;28;20158;-48
2022/01/09 10:45:31;;;;;;;7.10;2.72;;;5.40;99.90;;;;;;5093974;28;20183;-49
2022/01/09 10:48:06;;;;;;;9.32;2.67;;;5.50;99.90;;;;;;5093384;28;20194;-48
2022/01/09 10:50:36;;;;;;;13.63;3.10;;;5.50;99.90;;;;;;5093968;28;20641;-45
2022/01/09 10:53:11;;;;;;;9.10;2.95;;;5.50;99.90;;;;;;5093673;28;20201;-46
2022/01/09 10:55:37;;;;;;;10.35;3.17;;;5.50;99.90;;;;;;5093495;28;20165;-47
2022/01/09 10:58:17;;;;;;;13.23;2.70;;;5.50;99.90;;;;;;5075470;28;20165;-46
2022/01/09 11:00:43;;;;;;;9.90;2.95;;;5.60;99.90;;;;;;5093012;28;20183;-47
2022/01/09 11:03:09;;;;;;;10.85;2.95;;;5.60;99.90;;;;;;5093353;28;20642;-50
2022/01/09 11:05:35;;;;;;;7.35;3.38;;;5.60;99.90;;;;;;5093241;28;20178;-46
2022/01/09 11:08:02;;;;;;;7.95;2.83;;;5.60;99.90;;;;;;5093192;28;20281;-48
2022/01/09 11:10:28;;;;;;;5.20;2.42;;;5.60;99.90;;;;;;5074575;28;20169;-47
2022/01/09 11:12:58;;;;;;;7.82;3.30;;;5.60;99.90;;;;;;5092235;28;20221;-47
2022/01/09 11:15:29;;;;;;;9.52;3.25;;;5.60;99.90;;;;;;5093117;28;20700;-47
2022/01/09 11:17:58;;;;;;;10.32;2.90;;;5.60;99.90;;;;;;5093132;28;20173;-47
2022/01/09 11:20:24;;;;;;;6.97;2.80;;;5.60;99.90;;;;;;5092956;28;20253;-47
2022/01/09 11:22:52;;;;;;;7.55;3.17;;;5.60;99.90;;;;;;5092666;28;20176;-47
2022/01/09 11:25:27;;;;;;;9.18;2.60;;;5.70;99.90;;;;;;5093066;28;20211;-47
2022/01/09 11:28:27;;;;;;;10.65;2.60;;;5.80;99.90;;;;;;5092213;28;20253;-48
2022/01/09 11:31:13;;;;;;;7.15;3.05;;;5.80;99.90;;;;;;5070209;28;20208;-45
2022/01/09 11:33:57;;;;;;;7.65;2.30;;;5.80;99.90;;;;;;5092482;28;20208;-47
2022/01/09 11:36:35;;;;;;;4.43;2.45;;;5.80;99.90;;;;;;5092889;28;20166;-44
2022/01/09 11:39:18;;;;;;;9.90;2.63;;;5.80;99.90;;;;;;5093104;28;20226;-45
2022/01/09 11:41:45;;;;;;;11.48;2.78;;;5.80;99.90;;;;;;5074600;28;20177;-47
2022/01/09 11:44:15;;;;;;;13.90;2.85;;;5.80;99.90;;;;;;5092372;28;20521;-46
2022/01/09 11:46:59;;;;;;;9.18;3.65;;;5.80;99.90;;;;;;5092917;28;20252;-47
2022/01/09 11:49:29;;;;;;;6.10;2.72;;;5.90;99.90;;;;;;5092243;28;20168;-47
2022/01/09 11:51:57;;;;;;;11.50;3.03;;;6.00;99.90;;;;;;5092631;28;20168;-46
2022/01/09 11:54:24;;;;;;;8.30;2.78;;;6.20;99.90;;;;;;5092162;28;20229;-45
2022/01/09 11:57:01;;;;;;;5.93;2.38;;;6.30;99.90;;;;;;5091224;28;20589;-46
2022/01/09 11:59:37;;;;;;;11.82;2.50;;;6.20;99.90;;;;;;5090055;28;20161;-45
2022/01/09 12:02:29;;;;;;;5.78;2.60;;;6.20;99.90;;;;;;5092383;28;20160;-46
2022/01/09 12:05:03;;;;;;;9.52;2.92;;;6.10;99.90;;;;;;5090742;28;20168;-45
2022/01/09 12:07:32;;;;;;;7.90;3.00;;;6.20;99.90;;;;;;5091234;28;20247;-45
2022/01/09 12:09:59;;;;;;;13.35;2.58;;;6.20;99.90;;;;;;5090205;28;20173;-45
2022/01/09 12:12:37;;;;;;;12.38;3.70;;;6.20;99.90;;;;;;5090573;28;20209;-47
2022/01/09 12:15:08;;;;;;;12.35;3.00;;;6.30;99.90;;;;;;5074512;28;20536;-46
2022/01/09 12:17:33;;;;;;;6.00;2.05;;;6.20;99.90;;;;;;5074664;28;20590;-45
2022/01/09 12:20:14;;;;;;;13.10;3.63;;;6.20;99.90;;;;;;5092583;28;20193;-45
2022/01/09 12:25:33;;;;;;;7.50;2.63;;;6.20;99.90;;;;;;5092419;28;20191;-46
2022/01/09 12:28:19;;;;;;;9.25;2.83;;;6.30;99.90;;;;;;5073870;28;20507;-45
2022/01/09 12:30:52;;;;;;;10.32;2.65;;;6.30;99.90;;;;;;5092150;28;20256;-47
2022/01/09 12:33:38;;;;;;;6.97;2.60;;;6.30;99.90;;;;;;5092328;28;20250;-46
2022/01/09 12:36:15;;;;;;;14.30;2.90;;;6.20;99.90;;;;;;5090635;28;20164;-45
2022/01/09 12:38:47;;;;;;;11.02;2.63;;;6.30;99.90;;;;;;5090714;28;20169;-44
2022/01/09 12:41:18;;;;;;;7.22;2.42;;;6.30;99.90;;;;;;5090057;28;20169;-45
2022/01/09 12:43:43;;;;;;;13.73;2.80;;;6.20;99.90;;;;;;5090582;28;20655;-46
2022/01/09 12:46:18;;;;;;;10.20;2.92;;;6.20;99.90;;;;;;5092061;28;20181;-47
2022/01/09 12:48:56;;;;;;;6.00;2.53;;;6.20;99.90;;;;;;5072885;28;20167;-47
2022/01/09 12:51:22;;;;;;;5.68;2.05;;;6.20;99.90;;;;;;5072204;28;20629;-46
2022/01/09 12:53:50;;;;;;;11.18;2.85;;;6.20;99.90;;;;;;5090199;28;20209;-46
2022/01/09 12:56:20;;;;;;;9.35;2.92;;;6.20;99.90;;;;;;5090129;28;20226;-46
2022/01/09 12:58:52;;;;;;;11.35;2.88;;;6.10;99.90;;;;;;5090307;28;20169;-45